sensor_id;sensor_type;location;lat;lon;timestamp;P1;durP1;ratioP1;P2;durP2;ratioP2
41923;SDS011;27613;48.116;11.656;2023-01-23T00:01:12;28.83;;;16.58;;
41923;SDS011;27613;48.116;11.656;2023-01-23T00:03:40;31.00;;;17.25;;
41923;SDS011;27613;48.116;11.656;2023-01-23T00:06:08;28.88;;;16.35;;
41923;SDS011;27613;48.116;11.656;2023-01-23T00:08:36;26.15;;;15.30;;
41923;SDS011;27613;48.116;11.656;2023-01-23T00:11:03;29.90;;;17.13;;
41923;SDS011;27613;48.116;11.656;2023-01-23T00:13:30;30.17;;;15.48;;
41923;SDS011;27613;48.116;11.656;2023-01-23T00:15:56;26.92;;;15.70;;
41923;SDS011;27613;48.116;11.656;2023-01-23T00:18:22;27.98;;;15.73;;
41923;SDS011;27613;48.116;11.656;2023-01-23T00:20:47;35.65;;;17.15;;
41923;SDS011;27613;48.116;11.656;2023-01-23T00:23:13;29.40;;;15.48;;
41923;SDS011;27613;48.116;11.656;2023-01-23T00:25:38;36.03;;;16.80;;
41923;SDS011;27613;48.116;11.656;2023-01-23T00:28:04;28.80;;;15.43;;
41923;SDS011;27613;48.116;11.656;2023-01-23T00:30:29;30.75;;;16.52;;
41923;SDS011;27613;48.116;11.656;2023-01-23T00:32:55;28.23;;;16.55;;
41923;SDS011;27613;48.116;11.656;2023-01-23T00:35:21;35.67;;;15.93;;
41923;SDS011;27613;48.116;11.656;2023-01-23T00:37:46;27.42;;;16.73;;
41923;SDS011;27613;48.116;11.656;2023-01-23T00:40:12;30.20;;;16.42;;
41923;SDS011;27613;48.116;11.656;2023-01-23T00:42:38;26.58;;;15.98;;
41923;SDS011;27613;48.116;11.656;2023-01-23T00:45:04;31.00;;;16.27;;
41923;SDS011;27613;48.116;11.656;2023-01-23T00:47:30;32.55;;;15.48;;
41923;SDS011;27613;48.116;11.656;2023-01-23T00:49:56;27.40;;;16.43;;
41923;SDS011;27613;48.116;11.656;2023-01-23T00:52:23;31.75;;;16.27;;
41923;SDS011;27613;48.116;11.656;2023-01-23T00:54:49;28.42;;;15.85;;
41923;SDS011;27613;48.116;11.656;2023-01-23T00:57:15;26.40;;;15.57;;
41923;SDS011;27613;48.116;11.656;2023-01-23T00:59:40;28.70;;;15.40;;
41923;SDS011;27613;48.116;11.656;2023-01-23T01:02:06;26.40;;;15.07;;
41923;SDS011;27613;48.116;11.656;2023-01-23T01:04:31;29.52;;;15.38;;
41923;SDS011;27613;48.116;11.656;2023-01-23T01:06:57;25.83;;;15.43;;
41923;SDS011;27613;48.116;11.656;2023-01-23T01:09:23;27.42;;;14.40;;
41923;SDS011;27613;48.116;11.656;2023-01-23T01:11:48;24.45;;;14.25;;
41923;SDS011;27613;48.116;11.656;2023-01-23T01:14:14;26.02;;;15.20;;
41923;SDS011;27613;48.116;11.656;2023-01-23T01:16:40;22.33;;;14.23;;
41923;SDS011;27613;48.116;11.656;2023-01-23T01:19:09;28.73;;;14.75;;
41923;SDS011;27613;48.116;11.656;2023-01-23T01:21:35;25.88;;;15.38;;
41923;SDS011;27613;48.116;11.656;2023-01-23T01:24:01;24.23;;;13.75;;
41923;SDS011;27613;48.116;11.656;2023-01-23T01:26:26;34.58;;;16.25;;
41923;SDS011;27613;48.116;11.656;2023-01-23T01:28:52;28.80;;;15.20;;
41923;SDS011;27613;48.116;11.656;2023-01-23T01:31:17;28.05;;;14.93;;
41923;SDS011;27613;48.116;11.656;2023-01-23T01:33:43;24.70;;;14.85;;
41923;SDS011;27613;48.116;11.656;2023-01-23T01:36:09;24.13;;;14.13;;
41923;SDS011;27613;48.116;11.656;2023-01-23T01:38:40;25.08;;;14.43;;
41923;SDS011;27613;48.116;11.656;2023-01-23T01:41:06;29.15;;;15.82;;
41923;SDS011;27613;48.116;11.656;2023-01-23T01:43:32;25.48;;;15.57;;
41923;SDS011;27613;48.116;11.656;2023-01-23T01:48:47;23.40;;;14.27;;
41923;SDS011;27613;48.116;11.656;2023-01-23T01:51:32;25.20;;;15.25;;
41923;SDS011;27613;48.116;11.656;2023-01-23T01:56:48;25.80;;;14.23;;
41923;SDS011;27613;48.116;11.656;2023-01-23T01:59:37;30.33;;;14.98;;
41923;SDS011;27613;48.116;11.656;2023-01-23T02:02:11;26.67;;;14.82;;
41923;SDS011;27613;48.116;11.656;2023-01-23T02:04:40;24.42;;;15.02;;
41923;SDS011;27613;48.116;11.656;2023-01-23T02:07:12;23.98;;;13.80;;
41923;SDS011;27613;48.116;11.656;2023-01-23T02:09:44;24.17;;;14.40;;
41923;SDS011;27613;48.116;11.656;2023-01-23T02:12:11;23.00;;;14.82;;
41923;SDS011;27613;48.116;11.656;2023-01-23T02:14:37;23.83;;;14.57;;
41923;SDS011;27613;48.116;11.656;2023-01-23T02:17:02;30.35;;;17.55;;
41923;SDS011;27613;48.116;11.656;2023-01-23T02:19:32;31.33;;;18.17;;
41923;SDS011;27613;48.116;11.656;2023-01-23T02:27:36;32.03;;;18.60;;
41923;SDS011;27613;48.116;11.656;2023-01-23T02:30:02;28.15;;;16.63;;
41923;SDS011;27613;48.116;11.656;2023-01-23T02:32:29;23.15;;;15.80;;
41923;SDS011;27613;48.116;11.656;2023-01-23T02:34:56;32.55;;;18.08;;
41923;SDS011;27613;48.116;11.656;2023-01-23T02:37:25;34.30;;;16.63;;
41923;SDS011;27613;48.116;11.656;2023-01-23T02:39:55;24.50;;;16.33;;
41923;SDS011;27613;48.116;11.656;2023-01-23T02:42:21;29.42;;;16.35;;
41923;SDS011;27613;48.116;11.656;2023-01-23T02:44:48;24.30;;;16.00;;
41923;SDS011;27613;48.116;11.656;2023-01-23T02:47:14;28.42;;;16.75;;
41923;SDS011;27613;48.116;11.656;2023-01-23T02:49:39;27.67;;;16.25;;
41923;SDS011;27613;48.116;11.656;2023-01-23T02:52:06;26.08;;;17.17;;
41923;SDS011;27613;48.116;11.656;2023-01-23T02:54:33;26.92;;;17.38;;
41923;SDS011;27613;48.116;11.656;2023-01-23T02:56:59;34.35;;;18.05;;
41923;SDS011;27613;48.116;11.656;2023-01-23T02:59:25;31.20;;;18.58;;
41923;SDS011;27613;48.116;11.656;2023-01-23T03:02:09;33.13;;;18.80;;
41923;SDS011;27613;48.116;11.656;2023-01-23T03:04:34;32.80;;;18.88;;
41923;SDS011;27613;48.116;11.656;2023-01-23T03:07:00;29.23;;;17.35;;
41923;SDS011;27613;48.116;11.656;2023-01-23T03:09:26;26.52;;;17.95;;
41923;SDS011;27613;48.116;11.656;2023-01-23T03:11:51;31.48;;;19.55;;
41923;SDS011;27613;48.116;11.656;2023-01-23T03:14:18;30.17;;;18.10;;
41923;SDS011;27613;48.116;11.656;2023-01-23T03:16:46;30.27;;;18.20;;
41923;SDS011;27613;48.116;11.656;2023-01-23T03:19:15;28.95;;;19.15;;
41923;SDS011;27613;48.116;11.656;2023-01-23T03:21:42;30.52;;;19.15;;
41923;SDS011;27613;48.116;11.656;2023-01-23T03:24:08;27.88;;;17.55;;
41923;SDS011;27613;48.116;11.656;2023-01-23T03:26:37;30.42;;;19.10;;
41923;SDS011;27613;48.116;11.656;2023-01-23T03:29:04;30.60;;;18.77;;
41923;SDS011;27613;48.116;11.656;2023-01-23T03:31:48;26.20;;;17.60;;
41923;SDS011;27613;48.116;11.656;2023-01-23T03:34:13;29.85;;;19.17;;
41923;SDS011;27613;48.116;11.656;2023-01-23T03:36:41;31.70;;;19.45;;
41923;SDS011;27613;48.116;11.656;2023-01-23T03:39:07;29.52;;;18.45;;
41923;SDS011;27613;48.116;11.656;2023-01-23T03:41:52;30.17;;;18.20;;
41923;SDS011;27613;48.116;11.656;2023-01-23T03:44:17;33.47;;;19.83;;
41923;SDS011;27613;48.116;11.656;2023-01-23T03:46:44;31.77;;;18.77;;
41923;SDS011;27613;48.116;11.656;2023-01-23T03:49:11;34.03;;;17.95;;
41923;SDS011;27613;48.116;11.656;2023-01-23T03:51:37;28.50;;;18.67;;
41923;SDS011;27613;48.116;11.656;2023-01-23T03:54:03;28.98;;;18.30;;
41923;SDS011;27613;48.116;11.656;2023-01-23T03:56:28;28.30;;;18.25;;
41923;SDS011;27613;48.116;11.656;2023-01-23T03:58:55;28.98;;;17.45;;
41923;SDS011;27613;48.116;11.656;2023-01-23T04:01:21;27.58;;;18.02;;
41923;SDS011;27613;48.116;11.656;2023-01-23T04:03:48;31.35;;;18.95;;
41923;SDS011;27613;48.116;11.656;2023-01-23T04:06:14;31.58;;;18.58;;
41923;SDS011;27613;48.116;11.656;2023-01-23T04:08:40;25.75;;;17.58;;
41923;SDS011;27613;48.116;11.656;2023-01-23T04:11:06;30.60;;;18.55;;
41923;SDS011;27613;48.116;11.656;2023-01-23T04:13:33;25.25;;;17.58;;
41923;SDS011;27613;48.116;11.656;2023-01-23T04:16:01;28.20;;;18.50;;
41923;SDS011;27613;48.116;11.656;2023-01-23T04:18:27;27.17;;;18.05;;
41923;SDS011;27613;48.116;11.656;2023-01-23T04:20:53;34.88;;;18.27;;
41923;SDS011;27613;48.116;11.656;2023-01-23T04:23:19;24.00;;;16.95;;
41923;SDS011;27613;48.116;11.656;2023-01-23T04:25:45;29.25;;;18.52;;
41923;SDS011;27613;48.116;11.656;2023-01-23T04:28:11;28.65;;;18.88;;
41923;SDS011;27613;48.116;11.656;2023-01-23T04:30:37;28.23;;;17.20;;
41923;SDS011;27613;48.116;11.656;2023-01-23T04:33:03;26.98;;;18.05;;
41923;SDS011;27613;48.116;11.656;2023-01-23T04:35:28;28.10;;;18.10;;
41923;SDS011;27613;48.116;11.656;2023-01-23T04:37:54;27.77;;;17.20;;
41923;SDS011;27613;48.116;11.656;2023-01-23T04:40:20;27.73;;;17.90;;
41923;SDS011;27613;48.116;11.656;2023-01-23T04:42:45;27.48;;;17.38;;
41923;SDS011;27613;48.116;11.656;2023-01-23T04:45:11;27.98;;;17.20;;
41923;SDS011;27613;48.116;11.656;2023-01-23T04:47:36;25.30;;;16.58;;
41923;SDS011;27613;48.116;11.656;2023-01-23T04:50:02;28.67;;;18.00;;
41923;SDS011;27613;48.116;11.656;2023-01-23T04:52:29;26.10;;;16.58;;
41923;SDS011;27613;48.116;11.656;2023-01-23T04:54:54;29.10;;;17.10;;
41923;SDS011;27613;48.116;11.656;2023-01-23T04:57:20;27.98;;;16.90;;
41923;SDS011;27613;48.116;11.656;2023-01-23T04:59:45;25.27;;;17.10;;
41923;SDS011;27613;48.116;11.656;2023-01-23T05:02:11;27.83;;;17.67;;
41923;SDS011;27613;48.116;11.656;2023-01-23T05:04:37;24.88;;;16.73;;
41923;SDS011;27613;48.116;11.656;2023-01-23T05:07:02;28.17;;;17.35;;
41923;SDS011;27613;48.116;11.656;2023-01-23T05:09:28;28.90;;;18.10;;
41923;SDS011;27613;48.116;11.656;2023-01-23T05:11:53;25.52;;;17.33;;
41923;SDS011;27613;48.116;11.656;2023-01-23T05:14:19;27.42;;;17.33;;
41923;SDS011;27613;48.116;11.656;2023-01-23T05:16:46;25.52;;;17.35;;
41923;SDS011;27613;48.116;11.656;2023-01-23T05:19:11;24.63;;;17.23;;
41923;SDS011;27613;48.116;11.656;2023-01-23T05:21:37;24.85;;;16.58;;
41923;SDS011;27613;48.116;11.656;2023-01-23T05:24:02;24.88;;;16.55;;
41923;SDS011;27613;48.116;11.656;2023-01-23T05:26:28;22.83;;;16.02;;
41923;SDS011;27613;48.116;11.656;2023-01-23T05:28:54;25.85;;;17.77;;
41923;SDS011;27613;48.116;11.656;2023-01-23T05:31:19;24.23;;;15.43;;
41923;SDS011;27613;48.116;11.656;2023-01-23T05:33:46;26.23;;;16.98;;
41923;SDS011;27613;48.116;11.656;2023-01-23T05:36:11;33.00;;;17.48;;
41923;SDS011;27613;48.116;11.656;2023-01-23T05:38:37;27.60;;;16.92;;
41923;SDS011;27613;48.116;11.656;2023-01-23T05:41:02;24.98;;;16.42;;
41923;SDS011;27613;48.116;11.656;2023-01-23T05:43:28;23.15;;;17.00;;
41923;SDS011;27613;48.116;11.656;2023-01-23T05:45:54;24.63;;;16.23;;
41923;SDS011;27613;48.116;11.656;2023-01-23T05:48:19;23.33;;;16.17;;
41923;SDS011;27613;48.116;11.656;2023-01-23T05:50:45;26.52;;;16.98;;
41923;SDS011;27613;48.116;11.656;2023-01-23T05:53:10;22.70;;;15.55;;
41923;SDS011;27613;48.116;11.656;2023-01-23T05:55:36;22.67;;;16.02;;
41923;SDS011;27613;48.116;11.656;2023-01-23T05:58:02;29.30;;;17.10;;
41923;SDS011;27613;48.116;11.656;2023-01-23T06:00:28;33.78;;;17.45;;
41923;SDS011;27613;48.116;11.656;2023-01-23T06:02:53;27.45;;;17.17;;
41923;SDS011;27613;48.116;11.656;2023-01-23T06:05:19;25.70;;;16.60;;
41923;SDS011;27613;48.116;11.656;2023-01-23T06:07:44;24.83;;;16.42;;
41923;SDS011;27613;48.116;11.656;2023-01-23T06:10:10;22.88;;;15.55;;
41923;SDS011;27613;48.116;11.656;2023-01-23T06:12:35;29.42;;;17.42;;
41923;SDS011;27613;48.116;11.656;2023-01-23T06:15:01;27.35;;;17.20;;
41923;SDS011;27613;48.116;11.656;2023-01-23T06:17:27;24.00;;;16.95;;
41923;SDS011;27613;48.116;11.656;2023-01-23T06:19:52;26.90;;;16.90;;
41923;SDS011;27613;48.116;11.656;2023-01-23T06:22:18;27.85;;;17.10;;
41923;SDS011;27613;48.116;11.656;2023-01-23T06:24:43;28.65;;;16.80;;
41923;SDS011;27613;48.116;11.656;2023-01-23T06:27:09;30.17;;;18.45;;
41923;SDS011;27613;48.116;11.656;2023-01-23T06:29:35;24.90;;;16.50;;
41923;SDS011;27613;48.116;11.656;2023-01-23T06:32:01;27.95;;;17.58;;
41923;SDS011;27613;48.116;11.656;2023-01-23T06:34:27;24.80;;;16.85;;
41923;SDS011;27613;48.116;11.656;2023-01-23T06:36:54;29.45;;;19.27;;
41923;SDS011;27613;48.116;11.656;2023-01-23T06:39:20;27.60;;;18.33;;
41923;SDS011;27613;48.116;11.656;2023-01-23T06:41:45;27.58;;;18.35;;
41923;SDS011;27613;48.116;11.656;2023-01-23T06:44:11;27.52;;;19.00;;
41923;SDS011;27613;48.116;11.656;2023-01-23T06:46:36;30.77;;;17.70;;
41923;SDS011;27613;48.116;11.656;2023-01-23T06:49:02;29.67;;;20.17;;
41923;SDS011;27613;48.116;11.656;2023-01-23T06:51:28;31.95;;;21.48;;
41923;SDS011;27613;48.116;11.656;2023-01-23T06:53:54;34.15;;;21.17;;
41923;SDS011;27613;48.116;11.656;2023-01-23T06:56:20;36.08;;;21.42;;
41923;SDS011;27613;48.116;11.656;2023-01-23T06:58:46;36.85;;;21.38;;
41923;SDS011;27613;48.116;11.656;2023-01-23T07:01:13;33.47;;;21.35;;
41923;SDS011;27613;48.116;11.656;2023-01-23T07:03:41;32.72;;;20.35;;
41923;SDS011;27613;48.116;11.656;2023-01-23T07:06:08;51.88;;;23.15;;
41923;SDS011;27613;48.116;11.656;2023-01-23T07:08:35;41.75;;;23.73;;
41923;SDS011;27613;48.116;11.656;2023-01-23T07:11:01;46.63;;;24.17;;
41923;SDS011;27613;48.116;11.656;2023-01-23T07:13:27;42.92;;;24.08;;
41923;SDS011;27613;48.116;11.656;2023-01-23T07:15:53;41.90;;;23.73;;
41923;SDS011;27613;48.116;11.656;2023-01-23T07:18:18;52.55;;;25.77;;
41923;SDS011;27613;48.116;11.656;2023-01-23T07:20:45;41.13;;;22.83;;
41923;SDS011;27613;48.116;11.656;2023-01-23T07:23:11;47.08;;;23.45;;
41923;SDS011;27613;48.116;11.656;2023-01-23T07:25:37;56.92;;;25.48;;
41923;SDS011;27613;48.116;11.656;2023-01-23T07:28:03;51.22;;;25.92;;
41923;SDS011;27613;48.116;11.656;2023-01-23T07:30:29;48.88;;;26.00;;
41923;SDS011;27613;48.116;11.656;2023-01-23T07:32:55;54.78;;;26.50;;
41923;SDS011;27613;48.116;11.656;2023-01-23T07:35:22;62.65;;;25.75;;
41923;SDS011;27613;48.116;11.656;2023-01-23T07:37:47;58.63;;;26.23;;
41923;SDS011;27613;48.116;11.656;2023-01-23T07:40:13;50.28;;;26.58;;
41923;SDS011;27613;48.116;11.656;2023-01-23T07:42:38;57.05;;;26.52;;
41923;SDS011;27613;48.116;11.656;2023-01-23T07:45:06;50.67;;;26.55;;
41923;SDS011;27613;48.116;11.656;2023-01-23T07:47:32;53.83;;;27.33;;
41923;SDS011;27613;48.116;11.656;2023-01-23T07:49:58;52.83;;;27.40;;
41923;SDS011;27613;48.116;11.656;2023-01-23T07:52:24;53.83;;;27.38;;
41923;SDS011;27613;48.116;11.656;2023-01-23T07:54:49;67.10;;;29.27;;
41923;SDS011;27613;48.116;11.656;2023-01-23T07:57:15;57.67;;;27.77;;
41923;SDS011;27613;48.116;11.656;2023-01-23T07:59:40;60.38;;;29.23;;
41923;SDS011;27613;48.116;11.656;2023-01-23T08:02:07;45.00;;;25.42;;
41923;SDS011;27613;48.116;11.656;2023-01-23T08:04:36;53.95;;;27.23;;
41923;SDS011;27613;48.116;11.656;2023-01-23T08:07:02;54.63;;;27.27;;
41923;SDS011;27613;48.116;11.656;2023-01-23T08:09:27;67.60;;;27.05;;
41923;SDS011;27613;48.116;11.656;2023-01-23T08:11:53;49.65;;;25.25;;
41923;SDS011;27613;48.116;11.656;2023-01-23T08:14:19;47.28;;;25.30;;
41923;SDS011;27613;48.116;11.656;2023-01-23T08:16:47;47.85;;;25.73;;
41923;SDS011;27613;48.116;11.656;2023-01-23T08:19:16;44.28;;;23.80;;
41923;SDS011;27613;48.116;11.656;2023-01-23T08:21:43;52.10;;;25.05;;
41923;SDS011;27613;48.116;11.656;2023-01-23T08:24:09;41.72;;;22.25;;
41923;SDS011;27613;48.116;11.656;2023-01-23T08:26:38;37.30;;;22.48;;
41923;SDS011;27613;48.116;11.656;2023-01-23T08:29:04;40.92;;;22.48;;
41923;SDS011;27613;48.116;11.656;2023-01-23T08:31:30;45.95;;;24.02;;
41923;SDS011;27613;48.116;11.656;2023-01-23T08:33:55;46.67;;;23.52;;
41923;SDS011;27613;48.116;11.656;2023-01-23T08:36:21;43.53;;;23.60;;
41923;SDS011;27613;48.116;11.656;2023-01-23T08:38:47;35.78;;;20.55;;
41923;SDS011;27613;48.116;11.656;2023-01-23T08:41:13;39.15;;;21.42;;
41923;SDS011;27613;48.116;11.656;2023-01-23T08:43:39;36.50;;;21.48;;
41923;SDS011;27613;48.116;11.656;2023-01-23T08:46:05;44.08;;;21.88;;
41923;SDS011;27613;48.116;11.656;2023-01-23T08:48:31;51.25;;;23.63;;
41923;SDS011;27613;48.116;11.656;2023-01-23T08:51:00;34.58;;;22.13;;
41923;SDS011;27613;48.116;11.656;2023-01-23T08:53:27;33.75;;;20.50;;
41923;SDS011;27613;48.116;11.656;2023-01-23T08:55:57;36.42;;;21.13;;
41923;SDS011;27613;48.116;11.656;2023-01-23T08:58:24;36.10;;;21.35;;
41923;SDS011;27613;48.116;11.656;2023-01-23T09:00:49;32.60;;;20.92;;
41923;SDS011;27613;48.116;11.656;2023-01-23T09:03:15;38.10;;;20.98;;
41923;SDS011;27613;48.116;11.656;2023-01-23T09:05:40;38.55;;;21.60;;
41923;SDS011;27613;48.116;11.656;2023-01-23T09:08:06;39.50;;;22.08;;
41923;SDS011;27613;48.116;11.656;2023-01-23T09:10:31;37.70;;;21.88;;
41923;SDS011;27613;48.116;11.656;2023-01-23T09:12:57;34.65;;;21.75;;
41923;SDS011;27613;48.116;11.656;2023-01-23T09:15:23;32.00;;;21.75;;
41923;SDS011;27613;48.116;11.656;2023-01-23T09:17:48;34.08;;;21.27;;
41923;SDS011;27613;48.116;11.656;2023-01-23T09:20:14;34.05;;;21.15;;
41923;SDS011;27613;48.116;11.656;2023-01-23T09:22:40;34.60;;;21.75;;
41923;SDS011;27613;48.116;11.656;2023-01-23T09:25:06;32.78;;;19.85;;
41923;SDS011;27613;48.116;11.656;2023-01-23T09:27:32;27.38;;;18.70;;
41923;SDS011;27613;48.116;11.656;2023-01-23T09:29:58;32.75;;;20.80;;
41923;SDS011;27613;48.116;11.656;2023-01-23T09:32:23;31.10;;;19.70;;
41923;SDS011;27613;48.116;11.656;2023-01-23T09:34:49;28.15;;;19.20;;
41923;SDS011;27613;48.116;11.656;2023-01-23T09:37:15;29.40;;;20.20;;
41923;SDS011;27613;48.116;11.656;2023-01-23T09:39:42;30.13;;;19.77;;
41923;SDS011;27613;48.116;11.656;2023-01-23T09:42:15;35.38;;;20.30;;
41923;SDS011;27613;48.116;11.656;2023-01-23T09:44:44;30.65;;;20.10;;
41923;SDS011;27613;48.116;11.656;2023-01-23T09:49:54;27.90;;;18.40;;
41923;SDS011;27613;48.116;11.656;2023-01-23T09:53:08;31.13;;;20.20;;
41923;SDS011;27613;48.116;11.656;2023-01-23T09:55:23;36.05;;;21.23;;
41923;SDS011;27613;48.116;11.656;2023-01-23T10:01:03;31.05;;;20.08;;
41923;SDS011;27613;48.116;11.656;2023-01-23T10:03:29;28.98;;;19.00;;
41923;SDS011;27613;48.116;11.656;2023-01-23T10:15:14;26.77;;;18.73;;
41923;SDS011;27613;48.116;11.656;2023-01-23T10:20:57;28.45;;;18.60;;
41923;SDS011;27613;48.116;11.656;2023-01-23T10:26:40;30.50;;;19.10;;
41923;SDS011;27613;48.116;11.656;2023-01-23T10:29:12;31.13;;;19.98;;
41923;SDS011;27613;48.116;11.656;2023-01-23T10:31:41;25.80;;;17.67;;
41923;SDS011;27613;48.116;11.656;2023-01-23T10:40:02;31.27;;;19.75;;
41923;SDS011;27613;48.116;11.656;2023-01-23T10:42:38;39.17;;;21.35;;
41923;SDS011;27613;48.116;11.656;2023-01-23T10:45:04;30.25;;;20.63;;
41923;SDS011;27613;48.116;11.656;2023-01-23T10:47:35;31.13;;;20.58;;
41923;SDS011;27613;48.116;11.656;2023-01-23T10:50:06;23.35;;;15.75;;
41923;SDS011;27613;48.116;11.656;2023-01-23T10:52:34;28.13;;;19.90;;
41923;SDS011;27613;48.116;11.656;2023-01-23T10:55:07;52.40;;;22.25;;
41923;SDS011;27613;48.116;11.656;2023-01-23T10:57:57;32.70;;;20.83;;
41923;SDS011;27613;48.116;11.656;2023-01-23T11:00:29;28.98;;;20.02;;
41923;SDS011;27613;48.116;11.656;2023-01-23T11:05:47;35.55;;;21.08;;
41923;SDS011;27613;48.116;11.656;2023-01-23T11:08:36;27.60;;;18.95;;
41923;SDS011;27613;48.116;11.656;2023-01-23T11:11:38;30.17;;;19.23;;
41923;SDS011;27613;48.116;11.656;2023-01-23T11:16:40;26.40;;;19.58;;
41923;SDS011;27613;48.116;11.656;2023-01-23T11:27:04;28.77;;;18.95;;
41923;SDS011;27613;48.116;11.656;2023-01-23T11:32:30;29.50;;;19.00;;
41923;SDS011;27613;48.116;11.656;2023-01-23T11:35:12;28.40;;;18.70;;
41923;SDS011;27613;48.116;11.656;2023-01-23T11:37:40;29.40;;;18.73;;
41923;SDS011;27613;48.116;11.656;2023-01-23T11:42:38;27.88;;;19.08;;
41923;SDS011;27613;48.116;11.656;2023-01-23T11:48:05;30.27;;;20.52;;
41923;SDS011;27613;48.116;11.656;2023-01-23T11:54:08;29.27;;;19.35;;
41923;SDS011;27613;48.116;11.656;2023-01-23T12:10:43;32.75;;;20.83;;
41923;SDS011;27613;48.116;11.656;2023-01-23T12:19:06;26.50;;;18.13;;
41923;SDS011;27613;48.116;11.656;2023-01-23T12:21:44;26.77;;;18.48;;
41923;SDS011;27613;48.116;11.656;2023-01-23T12:24:38;25.50;;;18.10;;
41923;SDS011;27613;48.116;11.656;2023-01-23T12:27:29;26.02;;;18.27;;
41923;SDS011;27613;48.116;11.656;2023-01-23T12:43:35;23.92;;;16.33;;
41923;SDS011;27613;48.116;11.656;2023-01-23T12:46:14;26.10;;;16.65;;
41923;SDS011;27613;48.116;11.656;2023-01-23T12:48:45;24.63;;;16.83;;
41923;SDS011;27613;48.116;11.656;2023-01-23T12:51:18;26.15;;;17.63;;
41923;SDS011;27613;48.116;11.656;2023-01-23T12:53:47;26.35;;;17.27;;
41923;SDS011;27613;48.116;11.656;2023-01-23T12:58:50;30.55;;;18.08;;
41923;SDS011;27613;48.116;11.656;2023-01-23T13:01:45;26.50;;;18.80;;
41923;SDS011;27613;48.116;11.656;2023-01-23T13:04:28;23.90;;;16.35;;
41923;SDS011;27613;48.116;11.656;2023-01-23T13:09:45;31.05;;;18.77;;
41923;SDS011;27613;48.116;11.656;2023-01-23T13:12:34;24.55;;;16.95;;
41923;SDS011;27613;48.116;11.656;2023-01-23T13:17:47;26.30;;;18.15;;
41923;SDS011;27613;48.116;11.656;2023-01-23T13:28:41;26.73;;;18.40;;
41923;SDS011;27613;48.116;11.656;2023-01-23T13:34:02;27.77;;;19.08;;
41923;SDS011;27613;48.116;11.656;2023-01-23T13:36:40;28.75;;;19.52;;
41923;SDS011;27613;48.116;11.656;2023-01-23T13:41:46;28.27;;;18.23;;
41923;SDS011;27613;48.116;11.656;2023-01-23T13:47:07;24.50;;;17.50;;
41923;SDS011;27613;48.116;11.656;2023-01-23T13:53:06;25.27;;;17.73;;
41923;SDS011;27613;48.116;11.656;2023-01-23T13:56:00;29.50;;;16.85;;
41923;SDS011;27613;48.116;11.656;2023-01-23T13:58:44;23.95;;;15.65;;
41923;SDS011;27613;48.116;11.656;2023-01-23T14:01:14;22.40;;;16.52;;
41923;SDS011;27613;48.116;11.656;2023-01-23T14:04:04;25.27;;;17.13;;
41923;SDS011;27613;48.116;11.656;2023-01-23T14:06:55;25.73;;;16.95;;
41923;SDS011;27613;48.116;11.656;2023-01-23T14:09:22;24.63;;;17.15;;
41923;SDS011;27613;48.116;11.656;2023-01-23T14:12:26;25.45;;;16.95;;
41923;SDS011;27613;48.116;11.656;2023-01-23T14:14:52;23.02;;;16.40;;
41923;SDS011;27613;48.116;11.656;2023-01-23T14:17:37;24.02;;;17.15;;
41923;SDS011;27613;48.116;11.656;2023-01-23T14:20:11;21.65;;;15.70;;
41923;SDS011;27613;48.116;11.656;2023-01-23T14:22:42;22.02;;;15.88;;
41923;SDS011;27613;48.116;11.656;2023-01-23T14:25:13;23.38;;;16.95;;
41923;SDS011;27613;48.116;11.656;2023-01-23T14:27:42;24.83;;;15.80;;
41923;SDS011;27613;48.116;11.656;2023-01-23T14:30:17;22.10;;;16.55;;
41923;SDS011;27613;48.116;11.656;2023-01-23T14:32:45;24.20;;;15.18;;
41923;SDS011;27613;48.116;11.656;2023-01-23T14:35:17;29.65;;;16.27;;
41923;SDS011;27613;48.116;11.656;2023-01-23T14:37:52;19.60;;;14.60;;
41923;SDS011;27613;48.116;11.656;2023-01-23T14:40:21;27.70;;;16.85;;
41923;SDS011;27613;48.116;11.656;2023-01-23T14:43:01;23.52;;;15.75;;
41923;SDS011;27613;48.116;11.656;2023-01-23T14:45:30;21.13;;;15.70;;
41923;SDS011;27613;48.116;11.656;2023-01-23T14:47:56;22.85;;;15.32;;
41923;SDS011;27613;48.116;11.656;2023-01-23T14:50:23;23.08;;;15.45;;
41923;SDS011;27613;48.116;11.656;2023-01-23T14:53:00;22.05;;;15.68;;
41923;SDS011;27613;48.116;11.656;2023-01-23T14:55:28;21.10;;;14.93;;
41923;SDS011;27613;48.116;11.656;2023-01-23T14:57:56;21.23;;;15.48;;
41923;SDS011;27613;48.116;11.656;2023-01-23T15:00:23;22.42;;;15.80;;
41923;SDS011;27613;48.116;11.656;2023-01-23T15:02:50;26.92;;;16.95;;
41923;SDS011;27613;48.116;11.656;2023-01-23T15:05:18;23.00;;;16.25;;
41923;SDS011;27613;48.116;11.656;2023-01-23T15:08:15;25.67;;;16.10;;
41923;SDS011;27613;48.116;11.656;2023-01-23T15:10:48;21.83;;;15.73;;
41923;SDS011;27613;48.116;11.656;2023-01-23T15:13:22;23.85;;;16.25;;
41923;SDS011;27613;48.116;11.656;2023-01-23T15:15:56;25.35;;;17.33;;
41923;SDS011;27613;48.116;11.656;2023-01-23T15:18:25;23.02;;;15.80;;
41923;SDS011;27613;48.116;11.656;2023-01-23T15:23:29;27.27;;;17.25;;
41923;SDS011;27613;48.116;11.656;2023-01-23T15:31:34;21.63;;;15.50;;
41923;SDS011;27613;48.116;11.656;2023-01-23T15:36:48;26.30;;;16.88;;
41923;SDS011;27613;48.116;11.656;2023-01-23T15:39:47;28.52;;;16.48;;
41923;SDS011;27613;48.116;11.656;2023-01-23T15:44:40;29.58;;;19.00;;
41923;SDS011;27613;48.116;11.656;2023-01-23T15:47:07;24.88;;;16.83;;
41923;SDS011;27613;48.116;11.656;2023-01-23T15:49:34;30.10;;;18.10;;
41923;SDS011;27613;48.116;11.656;2023-01-23T15:52:08;28.15;;;17.95;;
41923;SDS011;27613;48.116;11.656;2023-01-23T15:54:38;28.42;;;17.40;;
41923;SDS011;27613;48.116;11.656;2023-01-23T15:57:04;31.85;;;18.42;;
41923;SDS011;27613;48.116;11.656;2023-01-23T15:59:31;31.92;;;17.95;;
41923;SDS011;27613;48.116;11.656;2023-01-23T16:01:58;27.70;;;17.45;;
41923;SDS011;27613;48.116;11.656;2023-01-23T16:04:23;24.80;;;17.33;;
41923;SDS011;27613;48.116;11.656;2023-01-23T16:06:49;31.80;;;21.15;;
41923;SDS011;27613;48.116;11.656;2023-01-23T16:09:36;28.58;;;19.02;;
41923;SDS011;27613;48.116;11.656;2023-01-23T16:12:02;34.78;;;21.13;;
41923;SDS011;27613;48.116;11.656;2023-01-23T16:14:28;29.75;;;20.23;;
41923;SDS011;27613;48.116;11.656;2023-01-23T16:16:53;31.27;;;20.15;;
41923;SDS011;27613;48.116;11.656;2023-01-23T16:19:19;33.33;;;20.27;;
41923;SDS011;27613;48.116;11.656;2023-01-23T16:21:45;30.42;;;19.83;;
41923;SDS011;27613;48.116;11.656;2023-01-23T16:24:20;35.03;;;22.00;;
41923;SDS011;27613;48.116;11.656;2023-01-23T16:26:48;41.47;;;23.05;;
41923;SDS011;27613;48.116;11.656;2023-01-23T16:29:33;34.45;;;22.00;;
41923;SDS011;27613;48.116;11.656;2023-01-23T16:31:59;32.03;;;21.67;;
41923;SDS011;27613;48.116;11.656;2023-01-23T16:34:26;36.58;;;22.95;;
41923;SDS011;27613;48.116;11.656;2023-01-23T16:36:52;36.33;;;22.38;;